createdAt,value
2022-12-02T00:01:12.891Z,13.35
2022-12-02T00:03:40.345Z,11.77
2022-12-02T00:06:20.387Z,11.55
2022-12-02T00:08:47.661Z,11.95
2022-12-02T00:11:28.104Z,15.48
2022-12-02T00:13:57.855Z,11.80
2022-12-02T00:16:26.292Z,11.52
2022-12-02T00:18:54.297Z,10.55
2022-12-02T00:21:22.741Z,11.23
2022-12-02T00:23:50.339Z,12.52
2022-12-02T00:26:18.002Z,14.05
2022-12-02T00:28:45.252Z,14.10
2022-12-02T00:31:14.686Z,10.82
2022-12-02T00:33:42.044Z,12.07
2022-12-02T00:36:09.344Z,13.32
2022-12-02T00:38:36.730Z,11.98
2022-12-02T00:41:04.100Z,9.25
2022-12-02T00:43:49.909Z,11.45
2022-12-02T00:46:32.465Z,11.35
2022-12-02T00:49:00.460Z,14.20
2022-12-02T00:51:27.711Z,15.18
2022-12-02T00:53:55.092Z,13.27
2022-12-02T00:56:22.517Z,11.82
2022-12-02T00:58:49.834Z,11.93
2022-12-02T01:01:17.260Z,13.13
2022-12-02T01:03:46.239Z,10.98
2022-12-02T01:06:13.934Z,12.60
2022-12-02T01:08:42.784Z,11.00
2022-12-02T01:11:10.143Z,9.80
2022-12-02T01:13:37.746Z,11.38
2022-12-02T01:16:05.524Z,11.30
2022-12-02T01:18:32.935Z,11.93
2022-12-02T01:21:00.203Z,9.80
2022-12-02T01:23:27.455Z,14.23
2022-12-02T01:25:54.750Z,10.52
2022-12-02T01:28:22.274Z,12.95
2022-12-02T01:30:49.739Z,11.60
2022-12-02T01:33:17.363Z,11.18
2022-12-02T01:35:44.707Z,10.18
2022-12-02T01:38:14.317Z,10.93
2022-12-02T01:40:41.742Z,11.10
2022-12-02T01:43:09.136Z,9.88
2022-12-02T01:45:36.828Z,13.80
2022-12-02T01:48:06.647Z,10.38
2022-12-02T01:50:34.197Z,11.73
2022-12-02T01:53:01.785Z,11.40
2022-12-02T01:55:29.749Z,12.52
2022-12-02T01:57:58.003Z,12.07
2022-12-02T02:00:25.384Z,11.32
2022-12-02T02:02:52.655Z,10.02
2022-12-02T02:05:28.055Z,8.43
2022-12-02T02:07:57.128Z,14.25
2022-12-02T02:10:27.304Z,8.32
2022-12-02T02:12:54.615Z,12.60
2022-12-02T02:15:22.634Z,11.25
2022-12-02T02:17:50.398Z,9.50
2022-12-02T02:20:19.220Z,11.48
2022-12-02T02:23:08.364Z,10.93
2022-12-02T02:25:40.060Z,16.33
2022-12-02T02:28:07.986Z,16.95
2022-12-02T02:30:35.958Z,16.98
2022-12-02T02:33:04.262Z,14.70
2022-12-02T02:35:31.896Z,11.35
2022-12-02T02:37:59.303Z,13.85
2022-12-02T02:40:27.570Z,18.10
2022-12-02T02:42:56.012Z,17.77
2022-12-02T02:45:25.615Z,18.10
2022-12-02T02:47:53.363Z,16.08
2022-12-02T02:50:21.600Z,15.95
2022-12-02T02:52:49.204Z,15.38
2022-12-02T02:55:19.881Z,17.50
2022-12-02T02:57:47.889Z,15.75
2022-12-02T03:00:15.615Z,15.60
2022-12-02T03:02:44.708Z,15.55
2022-12-02T03:05:12.199Z,16.77
2022-12-02T03:07:39.718Z,14.10
2022-12-02T03:10:07.905Z,11.23
2022-12-02T03:12:35.225Z,14.63
2022-12-02T03:15:03.538Z,13.90
2022-12-02T03:17:30.876Z,14.63
2022-12-02T03:19:58.669Z,17.70
2022-12-02T03:22:26.043Z,14.05
2022-12-02T03:24:53.621Z,16.65
2022-12-02T03:27:21.237Z,15.68
2022-12-02T03:29:48.573Z,14.75
2022-12-02T03:32:16.214Z,12.77
2022-12-02T03:34:43.511Z,15.73
2022-12-02T03:37:11.116Z,15.18
2022-12-02T03:39:38.722Z,16.65
2022-12-02T03:42:06.446Z,12.75
2022-12-02T03:44:33.813Z,17.02
2022-12-02T03:47:02.584Z,14.68
2022-12-02T03:49:30.420Z,12.88
2022-12-02T03:51:57.972Z,13.57
2022-12-02T03:54:25.275Z,15.20
2022-12-02T03:56:52.671Z,13.98
2022-12-02T03:59:24.425Z,14.95
2022-12-02T04:01:51.935Z,12.98
2022-12-02T04:04:19.185Z,16.20
2022-12-02T04:06:46.485Z,13.48
2022-12-02T04:09:13.818Z,14.55
2022-12-02T04:11:41.049Z,16.75
2022-12-02T04:14:08.298Z,13.20
2022-12-02T04:16:35.647Z,12.13
2022-12-02T04:19:02.914Z,18.08
2022-12-02T04:21:30.207Z,15.15
2022-12-02T04:23:57.539Z,13.43
2022-12-02T04:26:24.803Z,12.63
2022-12-02T04:28:52.253Z,15.48
2022-12-02T04:31:19.687Z,13.40
2022-12-02T04:33:46.987Z,15.13
2022-12-02T04:36:14.289Z,15.05
2022-12-02T04:38:41.566Z,12.52
2022-12-02T04:41:08.850Z,14.93
2022-12-02T04:43:36.105Z,14.30
2022-12-02T04:46:03.519Z,13.25
2022-12-02T04:48:30.951Z,16.75
2022-12-02T04:50:58.265Z,13.52
2022-12-02T04:53:25.598Z,18.95
2022-12-02T04:55:52.827Z,15.07
2022-12-02T04:58:20.114Z,12.73
2022-12-02T05:00:47.402Z,15.32
2022-12-02T05:03:14.799Z,13.57
2022-12-02T05:05:42.106Z,16.38
2022-12-02T05:08:09.519Z,14.60
2022-12-02T05:10:36.926Z,13.13
2022-12-02T05:13:04.288Z,15.52
2022-12-02T05:15:31.602Z,13.95
2022-12-02T05:17:58.914Z,14.13
2022-12-02T05:20:28.359Z,15.18
2022-12-02T05:22:55.698Z,12.68
2022-12-02T05:25:23.471Z,15.23
2022-12-02T05:27:50.870Z,14.10
2022-12-02T05:30:18.433Z,14.32
2022-12-02T05:32:48.363Z,15.27
2022-12-02T05:35:15.703Z,14.10
2022-12-02T05:37:42.952Z,13.63
2022-12-02T05:40:10.500Z,15.95
2022-12-02T05:42:37.876Z,12.68
2022-12-02T05:45:14.743Z,11.07
2022-12-02T05:47:42.322Z,15.57
2022-12-02T05:50:13.548Z,14.68
2022-12-02T05:55:12.450Z,13.55
2022-12-02T05:57:39.852Z,14.85
2022-12-02T06:00:10.086Z,13.48
2022-12-02T06:02:41.240Z,14.43
2022-12-02T06:05:35.408Z,15.00
2022-12-02T06:08:16.584Z,14.30
2022-12-02T06:10:45.603Z,13.27
2022-12-02T06:13:17.785Z,12.90
2022-12-02T06:15:45.608Z,12.43
2022-12-02T06:18:20.293Z,11.65
2022-12-02T06:20:48.972Z,10.23
2022-12-02T06:23:17.515Z,15.82
2022-12-02T06:25:45.465Z,11.07
2022-12-02T06:28:22.165Z,13.18
2022-12-02T06:30:49.667Z,13.98
2022-12-02T06:33:25.956Z,13.10
2022-12-02T06:35:53.828Z,12.35
2022-12-02T06:38:44.196Z,13.05
2022-12-02T06:41:26.042Z,13.55
2022-12-02T06:44:17.075Z,14.88
2022-12-02T06:46:44.431Z,15.98
2022-12-02T06:49:17.273Z,13.50
2022-12-02T06:51:44.727Z,15.20
2022-12-02T06:54:22.032Z,14.98
2022-12-02T06:56:50.469Z,16.95
2022-12-02T06:59:21.558Z,15.55
2022-12-02T07:01:48.994Z,16.73
2022-12-02T07:04:23.792Z,14.57
2022-12-02T07:06:52.598Z,15.88
2022-12-02T07:09:23.120Z,16.83
2022-12-02T07:11:51.843Z,13.73
2022-12-02T07:14:34.506Z,14.00
2022-12-02T07:17:25.158Z,17.70
2022-12-02T07:19:58.734Z,18.33
2022-12-02T07:22:30.605Z,15.30
2022-12-02T07:32:21.381Z,15.57
2022-12-02T07:34:49.216Z,14.40
2022-12-02T07:37:17.026Z,17.90
2022-12-02T07:39:44.360Z,16.88
2022-12-02T07:42:11.754Z,15.20
2022-12-02T07:44:40.915Z,13.98
2022-12-02T07:47:08.595Z,19.25
2022-12-02T07:49:36.195Z,15.50
2022-12-02T07:52:05.648Z,16.27
2022-12-02T07:54:33.663Z,14.73
2022-12-02T07:57:00.920Z,16.80
2022-12-02T07:59:28.240Z,15.52
2022-12-02T08:01:55.570Z,17.30
2022-12-02T08:04:23.220Z,19.38
2022-12-02T08:06:50.605Z,14.80
2022-12-02T08:09:20.419Z,21.10
2022-12-02T08:11:47.750Z,18.10
2022-12-02T08:14:15.310Z,18.67
2022-12-02T08:16:42.710Z,21.58
2022-12-02T08:19:10.199Z,18.42
2022-12-02T08:21:37.822Z,23.00
2022-12-02T08:24:05.909Z,18.80
2022-12-02T08:26:33.249Z,21.33
2022-12-02T08:29:00.816Z,19.67
2022-12-02T08:31:28.928Z,25.13
2022-12-02T08:33:56.373Z,20.83
2022-12-02T08:36:23.885Z,14.80
2022-12-02T08:38:51.281Z,18.05
2022-12-02T08:41:18.695Z,15.43
2022-12-02T08:43:46.110Z,14.48
2022-12-02T08:46:13.881Z,12.88
2022-12-02T08:48:41.283Z,15.25
2022-12-02T08:51:08.669Z,16.38
2022-12-02T08:53:36.028Z,12.75
2022-12-02T08:56:03.269Z,18.33
2022-12-02T08:58:30.651Z,15.73
2022-12-02T09:01:03.984Z,16.00
2022-12-02T09:03:31.386Z,16.95
2022-12-02T09:05:58.700Z,14.50
2022-12-02T09:08:25.995Z,20.55
2022-12-02T09:10:53.430Z,14.23
2022-12-02T09:13:20.944Z,15.45
2022-12-02T09:15:48.470Z,13.55
2022-12-02T09:18:15.919Z,11.52
2022-12-02T09:20:43.312Z,11.68
2022-12-02T09:23:10.651Z,14.07
2022-12-02T09:25:38.106Z,11.68
2022-12-02T09:28:05.500Z,9.77
2022-12-02T09:30:32.949Z,11.13
2022-12-02T09:33:00.330Z,10.90
2022-12-02T09:35:27.648Z,12.18
2022-12-02T09:37:56.683Z,11.23
2022-12-02T09:40:24.239Z,11.90
2022-12-02T09:42:52.231Z,10.07
2022-12-02T09:45:19.739Z,10.75
2022-12-02T09:47:47.208Z,9.05
2022-12-02T09:50:15.645Z,11.30
2022-12-02T09:52:43.153Z,12.27
2022-12-02T09:55:15.112Z,8.43
2022-12-02T09:57:42.873Z,9.68
2022-12-02T10:00:13.536Z,8.90
2022-12-02T10:02:45.214Z,10.13
2022-12-02T10:05:15.688Z,9.98
2022-12-02T10:07:43.539Z,10.73
2022-12-02T10:10:12.648Z,10.50
2022-12-02T10:12:40.103Z,8.85
2022-12-02T10:15:07.917Z,10.57
2022-12-02T10:17:35.860Z,9.05
2022-12-02T10:20:03.395Z,7.65
2022-12-02T10:22:30.794Z,10.25
2022-12-02T10:24:58.884Z,12.95
2022-12-02T10:27:30.642Z,9.88
2022-12-02T10:30:27.548Z,8.88
2022-12-02T10:33:00.773Z,10.20
2022-12-02T10:35:48.378Z,11.75
2022-12-02T10:38:34.583Z,10.65
2022-12-02T10:41:14.103Z,12.95
2022-12-02T10:43:45.434Z,10.05
2022-12-02T10:46:17.010Z,12.48
2022-12-02T10:48:44.351Z,9.23
2022-12-02T10:51:14.989Z,11.50
2022-12-02T10:53:42.764Z,13.50
2022-12-02T10:56:16.254Z,13.13
2022-12-02T10:58:43.532Z,9.07
2022-12-02T11:01:11.990Z,10.50
2022-12-02T11:03:39.970Z,12.13
2022-12-02T11:06:13.690Z,12.13
2022-12-02T11:08:42.848Z,10.40
2022-12-02T11:11:25.712Z,12.15
2022-12-02T11:13:53.124Z,9.85
2022-12-02T11:16:29.613Z,13.93
2022-12-02T11:19:15.629Z,19.52
2022-12-02T11:21:44.439Z,12.15
2022-12-02T11:24:23.938Z,13.90
2022-12-02T11:27:00.877Z,11.90
2022-12-02T11:29:29.776Z,10.63
2022-12-02T11:32:18.942Z,11.63
2022-12-02T11:35:15.862Z,12.57
2022-12-02T11:37:37.463Z,12.00
2022-12-02T11:40:04.785Z,13.15
2022-12-02T11:42:35.865Z,9.77
2022-12-02T11:45:24.286Z,16.73
2022-12-02T11:48:03.114Z,10.00
2022-12-02T11:50:41.669Z,11.25
2022-12-02T11:53:20.028Z,14.57
2022-12-02T11:55:48.596Z,13.75
2022-12-02T11:58:21.280Z,8.73
2022-12-02T12:01:13.967Z,15.70
2022-12-02T12:03:48.749Z,14.80
2022-12-02T12:06:17.379Z,12.32
2022-12-02T12:08:49.310Z,14.85
2022-12-02T12:11:18.361Z,14.93
2022-12-02T12:14:00.705Z,11.43
2022-12-02T13:38:54.739Z,17.13
2022-12-02T13:41:24.500Z,18.25
2022-12-02T13:43:51.807Z,16.60
2022-12-02T13:46:22.266Z,9.88
2022-12-02T13:48:49.574Z,13.13
2022-12-02T13:51:18.096Z,15.88
2022-12-02T13:53:45.458Z,19.30
2022-12-02T13:56:15.409Z,21.92
2022-12-02T13:58:42.742Z,27.63
2022-12-02T14:01:10.337Z,15.10
2022-12-02T14:03:38.030Z,17.50
2022-12-02T14:06:05.441Z,24.58
2022-12-02T14:08:32.813Z,27.42
2022-12-02T14:11:00.135Z,25.30
2022-12-02T14:13:30.216Z,13.45
2022-12-02T14:15:57.592Z,16.83
2022-12-02T14:18:26.588Z,15.63
2022-12-02T14:20:53.837Z,15.02
2022-12-02T14:23:23.268Z,19.00
2022-12-02T14:25:50.580Z,14.60
2022-12-02T14:28:18.011Z,11.90
2022-12-02T14:30:49.802Z,12.07
2022-12-02T14:33:20.395Z,13.52
2022-12-02T14:35:47.766Z,15.23
2022-12-02T14:38:18.659Z,13.50
2022-12-02T14:40:46.105Z,11.88
2022-12-02T14:43:14.651Z,11.82
2022-12-02T14:45:42.228Z,9.32
2022-12-02T14:48:09.722Z,9.88
2022-12-02T14:50:37.125Z,15.10
2022-12-02T14:53:04.427Z,13.02
2022-12-02T14:55:31.875Z,11.05
2022-12-02T14:57:59.207Z,13.63
2022-12-02T15:00:26.445Z,10.50
2022-12-02T15:02:53.857Z,12.80
2022-12-02T15:05:21.797Z,16.40
2022-12-02T15:07:49.316Z,15.70
2022-12-02T15:10:21.396Z,16.52
2022-12-02T15:12:51.790Z,13.40
2022-12-02T15:18:06.649Z,14.63
2022-12-02T15:20:33.957Z,15.40
2022-12-02T15:23:01.230Z,15.35
2022-12-02T15:25:28.530Z,13.32
2022-12-02T15:27:55.865Z,11.65
2022-12-02T15:30:23.265Z,10.52
2022-12-02T15:32:50.680Z,13.48
2022-12-02T15:35:18.037Z,10.80
2022-12-02T15:37:45.354Z,11.38
2022-12-02T15:40:13.440Z,13.60
2022-12-02T15:42:40.685Z,12.70
2022-12-02T15:45:08.222Z,13.35
2022-12-02T15:47:35.538Z,10.80
2022-12-02T15:50:03.137Z,10.73
2022-12-02T15:52:30.491Z,12.45
2022-12-02T15:54:57.870Z,12.57
2022-12-02T15:57:25.211Z,11.82
2022-12-02T15:59:52.467Z,12.05
2022-12-02T16:02:19.917Z,11.90
2022-12-02T16:04:56.054Z,11.18
2022-12-02T16:07:23.407Z,11.32
2022-12-02T16:09:53.553Z,12.25
2022-12-02T16:12:21.023Z,11.80
2022-12-02T16:14:55.105Z,12.27
2022-12-02T16:17:22.893Z,14.82
2022-12-02T16:19:50.193Z,12.82
2022-12-02T16:22:17.672Z,13.57
2022-12-02T16:24:44.973Z,16.63
2022-12-02T16:27:12.461Z,15.93
2022-12-02T16:29:39.844Z,14.00
2022-12-02T16:32:07.156Z,13.35
2022-12-02T16:34:34.612Z,11.10
2022-12-02T16:37:01.985Z,13.10
2022-12-02T16:39:29.377Z,13.30
2022-12-02T16:41:56.715Z,13.35
2022-12-02T16:44:24.011Z,12.48
2022-12-02T16:46:51.270Z,11.25
2022-12-02T16:49:18.616Z,14.07
2022-12-02T16:51:46.297Z,13.07
2022-12-02T16:54:13.686Z,13.63
2022-12-02T16:56:40.976Z,14.93
2022-12-02T16:59:08.355Z,12.35
2022-12-02T17:01:35.677Z,13.68
2022-12-02T17:04:03.121Z,12.82
2022-12-02T17:06:30.516Z,14.05
2022-12-02T17:09:00.654Z,13.25
2022-12-02T17:11:30.553Z,16.17
2022-12-02T17:13:58.067Z,12.40
2022-12-02T17:16:26.400Z,15.05
2022-12-02T17:18:53.784Z,13.10
2022-12-02T17:21:21.723Z,14.05
2022-12-02T17:23:49.078Z,13.57
2022-12-02T17:26:16.523Z,13.07
2022-12-02T17:28:43.865Z,13.70
2022-12-02T17:31:11.340Z,15.00
2022-12-02T17:33:38.854Z,14.98
2022-12-02T17:36:06.412Z,12.82
2022-12-02T17:38:55.759Z,17.75
2022-12-02T17:41:24.700Z,16.63
2022-12-02T17:43:52.222Z,12.20
2022-12-02T17:46:22.706Z,12.50
2022-12-02T17:48:50.178Z,17.83
2022-12-02T17:51:20.802Z,12.10
2022-12-02T17:53:48.185Z,14.82
2022-12-02T17:56:15.541Z,16.15
2022-12-02T17:58:42.899Z,14.02
2022-12-02T18:01:12.355Z,16.27
2022-12-02T18:03:40.843Z,14.32
2022-12-02T18:06:11.171Z,11.75
2022-12-02T18:08:39.624Z,13.48
2022-12-02T18:11:06.959Z,13.77
2022-12-02T18:13:41.499Z,13.80
2022-12-02T18:16:11.029Z,13.20
2022-12-02T18:18:38.276Z,12.07
2022-12-02T18:21:05.750Z,13.30
2022-12-02T18:23:33.170Z,13.25
2022-12-02T18:26:00.528Z,11.70
2022-12-02T18:28:27.862Z,14.55
2022-12-02T18:30:58.006Z,14.70
2022-12-02T18:33:25.593Z,15.93
2022-12-02T18:36:07.128Z,14.32
2022-12-02T18:38:36.758Z,14.80
2022-12-02T18:41:04.136Z,11.60
2022-12-02T18:43:36.184Z,13.93
2022-12-02T18:46:03.895Z,15.40
2022-12-02T18:48:31.456Z,11.23
2022-12-02T18:51:04.645Z,12.10
2022-12-02T18:53:31.991Z,26.02
2022-12-02T18:55:59.313Z,20.38
2022-12-02T18:58:26.666Z,26.85
2022-12-02T19:00:54.444Z,21.17
2022-12-02T19:03:21.976Z,18.10
2022-12-02T19:05:50.828Z,25.30
2022-12-02T19:08:18.227Z,19.65
2022-12-02T19:10:45.683Z,20.48
2022-12-02T19:13:13.007Z,17.70
2022-12-02T19:15:40.393Z,14.27
2022-12-02T19:18:08.011Z,14.13
2022-12-02T19:20:35.280Z,10.55
2022-12-02T19:23:02.789Z,11.35
2022-12-02T19:25:30.900Z,10.15
2022-12-02T19:28:05.803Z,9.18
2022-12-02T19:30:33.210Z,13.27
2022-12-02T19:33:00.526Z,10.88
2022-12-02T19:35:27.862Z,12.13
2022-12-02T19:37:59.434Z,11.57
2022-12-02T19:40:36.750Z,11.82
2022-12-02T19:43:10.897Z,15.02
2022-12-02T19:45:38.260Z,12.00
2022-12-02T19:48:05.865Z,11.60
2022-12-02T19:50:33.440Z,12.48
2022-12-02T19:53:00.747Z,13.63
2022-12-02T19:55:28.134Z,10.35
2022-12-02T19:57:55.460Z,10.70
2022-12-02T20:00:22.774Z,10.75
2022-12-02T20:02:51.034Z,10.32
2022-12-02T20:05:21.360Z,12.40
2022-12-02T20:07:49.319Z,15.00
2022-12-02T20:10:16.743Z,11.90
2022-12-02T20:12:44.068Z,10.50
2022-12-02T20:15:11.635Z,11.25
2022-12-02T20:17:38.899Z,11.27
2022-12-02T20:20:07.213Z,13.13
2022-12-02T20:22:34.584Z,17.30
2022-12-02T20:25:01.952Z,13.70
2022-12-02T20:27:29.289Z,13.68
2022-12-02T20:29:56.906Z,11.88
2022-12-02T20:32:24.220Z,9.35
2022-12-02T20:34:51.721Z,12.55
2022-12-02T20:37:19.369Z,12.65
2022-12-02T20:39:46.855Z,12.00
2022-12-02T20:42:14.197Z,12.65
2022-12-02T20:44:41.527Z,9.55
2022-12-02T20:47:08.984Z,10.10
2022-12-02T20:49:36.379Z,11.57
2022-12-02T20:52:03.833Z,11.27
2022-12-02T20:54:33.614Z,11.07
2022-12-02T20:57:00.974Z,14.35
2022-12-02T20:59:28.384Z,10.95
2022-12-02T21:01:55.698Z,10.18
2022-12-02T21:04:23.038Z,13.32
2022-12-02T21:06:50.545Z,8.98
2022-12-02T21:09:21.258Z,9.90
2022-12-02T21:11:48.621Z,10.57
2022-12-02T21:14:15.971Z,12.85
2022-12-02T21:16:43.327Z,10.43
2022-12-02T21:19:11.980Z,11.70
2022-12-02T21:21:39.281Z,14.70
2022-12-02T21:24:06.893Z,17.85
2022-12-02T21:26:34.332Z,17.23
2022-12-02T21:29:03.297Z,14.00
2022-12-02T21:31:30.630Z,13.50
2022-12-02T21:33:57.902Z,15.02
2022-12-02T21:36:25.376Z,12.55
2022-12-02T21:39:02.241Z,13.68
2022-12-02T21:41:29.588Z,12.40
2022-12-02T21:43:56.922Z,12.95
2022-12-02T21:46:24.276Z,13.43
2022-12-02T21:48:51.696Z,14.80
2022-12-02T21:51:18.997Z,11.90
2022-12-02T21:53:46.336Z,9.93
2022-12-02T21:56:13.633Z,9.20
2022-12-02T21:58:40.959Z,12.98
2022-12-02T22:01:27.097Z,14.23
2022-12-02T22:03:54.422Z,11.70
2022-12-02T22:06:21.708Z,10.13
2022-12-02T22:08:49.086Z,11.48
2022-12-02T22:11:16.370Z,11.38
2022-12-02T22:13:43.655Z,10.73
2022-12-02T22:16:10.994Z,9.45
2022-12-02T22:18:38.275Z,10.20
2022-12-02T22:21:05.521Z,10.20
2022-12-02T22:23:34.329Z,10.80
2022-12-02T22:26:01.723Z,10.43
2022-12-02T22:28:31.043Z,10.02
2022-12-02T22:31:00.523Z,8.80
2022-12-02T22:33:33.011Z,10.48
2022-12-02T22:36:00.901Z,9.85
2022-12-02T22:38:28.239Z,12.45
2022-12-02T22:40:55.540Z,12.13
2022-12-02T22:43:22.808Z,11.73
2022-12-02T22:45:50.207Z,9.88
2022-12-02T22:48:17.680Z,10.05
2022-12-02T22:50:44.999Z,10.07
2022-12-02T22:53:12.302Z,9.02
2022-12-02T22:55:39.587Z,12.43
2022-12-02T22:58:06.914Z,13.13
2022-12-02T23:00:34.212Z,10.52
2022-12-02T23:03:01.540Z,13.15
2022-12-02T23:05:29.066Z,10.70
2022-12-02T23:07:57.783Z,11.38
2022-12-02T23:10:25.174Z,10.80
2022-12-02T23:12:52.549Z,14.07
2022-12-02T23:15:37.766Z,9.85
2022-12-02T23:18:06.396Z,11.38
2022-12-02T23:20:35.247Z,13.05
2022-12-02T23:23:02.834Z,12.45
2022-12-02T23:25:30.173Z,13.13
2022-12-02T23:27:57.477Z,11.23
2022-12-02T23:30:28.834Z,13.77
2022-12-02T23:32:56.941Z,13.05
2022-12-02T23:35:24.296Z,12.35
2022-12-02T23:37:51.557Z,10.77
2022-12-02T23:40:19.069Z,9.38
2022-12-02T23:42:46.304Z,13.02
2022-12-02T23:45:13.668Z,11.82
2022-12-02T23:47:40.947Z,11.38
2022-12-02T23:50:08.574Z,10.27
2022-12-02T23:52:35.900Z,10.45
2022-12-02T23:55:03.266Z,10.55
2022-12-02T23:57:30.730Z,14.73
2022-12-02T23:59:58.552Z,12.07
